Time;durP1;ratioP1;P1;durP2;ratioP2;P2;SDS_P1;SDS_P2;PMS_P1;PMS_P2;Temp;Humidity;BMP_temperature;BMP_pressure;BME280_temperature;BME280_humidity;BME280_pressure;Samples;Min_cycle;Max_cycle;Signal;HPM_P1;HPM_P2
2024/01/16 00:02:07;;;;;;;6.07;3.73;;;0.50;99.90;;;;;;5012298;28;20498;-61
2024/01/16 00:04:37;;;;;;;4.30;3.90;;;0.50;99.90;;;;;;5012226;28;20491;-60
2024/01/16 00:07:05;;;;;;;3.90;3.60;;;0.50;99.90;;;;;;5008379;28;20479;-61
2024/01/16 00:09:34;;;;;;;7.63;4.57;;;0.50;99.90;;;;;;5006453;28;20475;-61
2024/01/16 00:12:05;;;;;;;4.40;4.00;;;0.60;99.90;;;;;;5013207;28;20875;-61
2024/01/16 00:14:36;;;;;;;4.50;4.10;;;0.60;99.90;;;;;;5010972;28;20553;-61
2024/01/16 00:17:04;;;;;;;4.30;3.90;;;0.60;99.90;;;;;;5006939;28;20471;-61
2024/01/16 00:19:33;;;;;;;4.57;3.97;;;0.50;99.90;;;;;;5010780;28;20547;-61
2024/01/16 00:22:02;;;;;;;5.43;4.67;;;0.50;99.90;;;;;;5002010;28;20495;-61
2024/01/16 00:24:30;;;;;;;5.30;4.70;;;0.50;99.90;;;;;;5009642;28;20468;-61
2024/01/16 00:26:58;;;;;;;5.10;4.60;;;0.50;99.90;;;;;;5008703;28;20558;-61
2024/01/16 00:29:28;;;;;;;4.87;4.37;;;0.50;99.90;;;;;;5011295;28;20570;-60
2024/01/16 00:31:56;;;;;;;6.00;5.30;;;0.50;99.90;;;;;;5010736;28;20492;-61
2024/01/16 00:34:24;;;;;;;5.50;4.17;;;0.40;99.90;;;;;;5009376;28;20471;-60
2024/01/16 00:36:52;;;;;;;4.40;4.07;;;0.40;99.90;;;;;;5008617;28;20472;-61
2024/01/16 00:39:20;;;;;;;5.00;4.00;;;0.40;99.90;;;;;;5002312;28;20613;-60
2024/01/16 00:41:48;;;;;;;4.97;4.47;;;0.40;99.90;;;;;;5010032;28;20526;-61
2024/01/16 00:44:16;;;;;;;5.00;4.07;;;0.30;99.90;;;;;;5000233;28;20522;-60
2024/01/16 00:46:45;;;;;;;5.17;3.70;;;0.30;99.90;;;;;;5006375;28;20502;-60
2024/01/16 00:49:13;;;;;;;3.40;3.10;;;0.30;99.90;;;;;;5001332;28;20483;-61
2024/01/16 00:51:43;;;;;;;4.27;3.87;;;0.20;99.90;;;;;;5003187;28;20537;-61
2024/01/16 00:54:11;;;;;;;4.43;3.67;;;0.20;99.90;;;;;;5003780;28;20503;-61
2024/01/16 00:56:39;;;;;;;3.80;3.40;;;0.20;99.90;;;;;;5003336;28;20475;-60
2024/01/16 00:59:07;;;;;;;4.10;3.70;;;0.10;99.90;;;;;;5003907;28;20995;-60
2024/01/16 01:01:47;;;;;;;4.00;3.60;;;0.20;99.90;;;;;;5005059;28;20499;-60
2024/01/16 01:04:16;;;;;;;4.83;4.23;;;0.10;99.90;;;;;;5004800;28;21843;-60
2024/01/16 01:06:44;;;;;;;4.60;4.07;;;0.10;99.90;;;;;;5000180;28;20922;-60
2024/01/16 01:09:12;;;;;;;4.60;4.07;;;0.10;99.90;;;;;;5004973;28;20528;-61
2024/01/16 01:11:40;;;;;;;5.33;4.20;;;0.10;99.90;;;;;;5001115;28;20519;-60
2024/01/16 01:14:09;;;;;;;4.33;3.77;;;0.10;99.90;;;;;;5003333;28;20479;-61
2024/01/16 01:16:37;;;;;;;5.80;3.60;;;0.10;99.90;;;;;;5004714;28;20470;-61
2024/01/16 01:19:05;;;;;;;3.87;3.47;;;0.10;99.90;;;;;;5007850;28;20637;-60
2024/01/16 01:21:36;;;;;;;4.60;4.20;;;0.10;99.90;;;;;;5001473;28;20664;-61
2024/01/16 01:24:05;;;;;;;4.90;4.40;;;0.10;99.90;;;;;;5000694;28;20471;-60
2024/01/16 01:26:33;;;;;;;4.33;3.93;;;0.10;99.90;;;;;;5003780;28;20475;-61
2024/01/16 01:29:01;;;;;;;4.50;4.10;;;0.10;99.90;;;;;;5003646;28;20475;-61
2024/01/16 01:31:29;;;;;;;5.13;4.43;;;0.10;99.90;;;;;;5015136;28;20483;-61
2024/01/16 01:33:57;;;;;;;6.90;4.97;;;0.10;99.90;;;;;;5018628;28;20790;-61
2024/01/16 01:36:25;;;;;;;5.00;4.50;;;0.10;99.90;;;;;;5018998;28;20532;-61
2024/01/16 01:38:54;;;;;;;6.10;4.67;;;0.10;99.90;;;;;;5022301;28;20498;-61
2024/01/16 01:41:22;;;;;;;5.43;4.93;;;0.10;99.90;;;;;;5020834;28;20495;-61
2024/01/16 01:43:50;;;;;;;4.30;3.90;;;0.10;99.90;;;;;;5018131;28;20475;-59
2024/01/16 01:46:20;;;;;;;6.80;4.27;;;0.10;99.90;;;;;;5010411;28;20617;-61
2024/01/16 01:48:49;;;;;;;6.27;4.30;;;0.10;99.90;;;;;;5018834;28;20578;-61
2024/01/16 01:51:19;;;;;;;6.83;5.40;;;0.10;99.90;;;;;;5012833;28;20487;-59
2024/01/16 01:53:51;;;;;;;5.13;4.63;;;0.10;99.90;;;;;;5015360;28;20588;-61
2024/01/16 01:56:22;;;;;;;5.67;4.57;;;0.20;99.90;;;;;;5010242;28;20490;-60
2024/01/16 01:58:55;;;;;;;7.03;4.53;;;0.20;99.90;;;;;;5016635;28;20499;-61
2024/01/16 02:01:23;;;;;;;5.30;4.70;;;0.20;99.90;;;;;;5014491;28;20515;-61
2024/01/16 02:03:53;;;;;;;8.00;5.13;;;0.20;99.90;;;;;;5013601;28;20562;-61
2024/01/16 02:06:21;;;;;;;6.60;4.60;;;0.20;99.90;;;;;;5009285;28;20562;-61
2024/01/16 02:08:49;;;;;;;6.93;4.60;;;0.20;99.90;;;;;;5016325;28;23474;-60
2024/01/16 02:11:18;;;;;;;7.60;5.20;;;0.20;99.90;;;;;;5035629;28;20489;-61
2024/01/16 02:13:49;;;;;;;5.60;5.00;;;0.20;99.90;;;;;;5033077;28;20664;-61
2024/01/16 02:16:21;;;;;;;7.03;5.30;;;0.20;99.90;;;;;;5011480;28;20570;-61
2024/01/16 02:18:50;;;;;;;5.70;5.00;;;0.10;99.90;;;;;;5016181;28;21037;-61
2024/01/16 02:21:21;;;;;;;6.10;4.90;;;0.10;99.90;;;;;;5018586;28;20502;-63
2024/01/16 02:23:50;;;;;;;5.33;4.73;;;0.10;99.90;;;;;;5018070;28;20463;-63
2024/01/16 02:26:19;;;;;;;5.23;4.73;;;0.10;99.90;;;;;;5016662;28;20475;-61
2024/01/16 02:28:47;;;;;;;7.03;5.13;;;0.10;99.90;;;;;;5016915;28;20463;-61
2024/01/16 02:31:16;;;;;;;6.50;5.50;;;0.10;99.90;;;;;;5013952;28;20517;-61
2024/01/16 02:33:44;;;;;;;7.17;5.20;;;0.00;99.90;;;;;;5018026;28;20471;-61
2024/01/16 02:36:12;;;;;;;8.20;5.50;;;0.00;99.90;;;;;;5014089;28;20575;-61
2024/01/16 02:38:41;;;;;;;5.97;5.00;;;-0.10;99.90;;;;;;5012226;28;20478;-61
2024/01/16 02:41:15;;;;;;;7.67;6.10;;;-0.10;99.90;;;;;;5002586;28;20603;-60
2024/01/16 02:43:44;;;;;;;7.57;5.50;;;-0.10;99.90;;;;;;5009014;28;20482;-60
2024/01/16 02:46:12;;;;;;;7.90;5.70;;;-0.10;99.90;;;;;;5014026;28;20471;-60
2024/01/16 02:48:42;;;;;;;7.70;5.70;;;-0.10;99.90;;;;;;5014400;28;20540;-61
2024/01/16 02:51:10;;;;;;;7.10;6.40;;;-0.10;99.90;;;;;;5012570;28;21218;-61
2024/01/16 02:53:38;;;;;;;9.27;6.50;;;-0.20;99.90;;;;;;5011875;28;20483;-61
2024/01/16 02:56:07;;;;;;;7.73;6.10;;;-0.20;99.90;;;;;;5015107;28;20475;-61
2024/01/16 02:58:36;;;;;;;7.40;6.37;;;-0.10;99.90;;;;;;5012985;28;21083;-61
2024/01/16 03:01:04;;;;;;;8.37;6.00;;;-0.10;99.90;;;;;;5013276;28;21074;-60
2024/01/16 03:03:32;;;;;;;8.00;6.20;;;-0.10;99.90;;;;;;5014149;28;20470;-59
2024/01/16 03:06:00;;;;;;;7.97;6.50;;;-0.10;99.90;;;;;;5014567;28;20490;-61
2024/01/16 03:08:29;;;;;;;9.00;7.30;;;-0.10;99.90;;;;;;5006033;28;20467;-61
2024/01/16 03:10:57;;;;;;;10.20;7.60;;;-0.10;99.90;;;;;;5010104;28;20540;-59
2024/01/16 03:13:25;;;;;;;11.17;7.50;;;-0.20;99.90;;;;;;5015847;28;20467;-60
2024/01/16 03:15:55;;;;;;;10.67;8.00;;;-0.20;99.90;;;;;;5019599;28;20566;-61
2024/01/16 03:18:23;;;;;;;11.20;8.37;;;-0.30;99.90;;;;;;5022255;28;20810;-60
2024/01/16 03:20:52;;;;;;;13.17;8.43;;;-0.30;99.90;;;;;;5016186;28;20487;-61
2024/01/16 03:23:20;;;;;;;11.70;8.37;;;-0.30;99.90;;;;;;5015572;28;20956;-63
2024/01/16 03:25:48;;;;;;;11.87;8.97;;;-0.30;99.90;;;;;;5013964;28;20804;-61
2024/01/16 03:28:16;;;;;;;12.33;9.03;;;-0.20;99.90;;;;;;5016047;28;20902;-59
2024/01/16 03:30:43;;;;;;;10.30;7.70;;;-0.20;99.90;;;;;;5018585;28;20483;-61
2024/01/16 03:33:13;;;;;;;10.23;7.97;;;-0.20;99.90;;;;;;5017768;28;20480;-60
2024/01/16 03:35:41;;;;;;;9.27;6.67;;;-0.20;99.90;;;;;;5022490;28;20968;-60
2024/01/16 03:38:10;;;;;;;8.90;6.63;;;-0.20;99.90;;;;;;5021193;28;20483;-60
2024/01/16 03:40:37;;;;;;;10.60;7.63;;;-0.20;99.90;;;;;;5019715;28;20491;-60
2024/01/16 03:43:06;;;;;;;10.20;7.00;;;-0.20;99.90;;;;;;5007639;28;20585;-67
2024/01/16 03:45:34;;;;;;;9.83;6.87;;;-0.20;99.90;;;;;;5018333;28;20550;-61
2024/01/16 03:48:03;;;;;;;10.20;7.90;;;-0.10;99.90;;;;;;5012878;28;20495;-60
2024/01/16 03:50:34;;;;;;;9.20;7.37;;;-0.10;99.90;;;;;;5017953;28;20498;-61
2024/01/16 03:53:02;;;;;;;9.80;7.10;;;-0.10;99.90;;;;;;5015676;28;20988;-60
2024/01/16 03:55:30;;;;;;;13.00;7.57;;;-0.10;99.90;;;;;;5016376;28;21007;-61
2024/01/16 03:57:58;;;;;;;9.57;7.67;;;-0.20;99.90;;;;;;5017443;28;20468;-61
2024/01/16 04:00:26;;;;;;;10.30;7.00;;;-0.20;99.90;;;;;;5007881;28;20614;-61
2024/01/16 04:02:54;;;;;;;11.03;8.10;;;-0.20;99.90;;;;;;5011159;28;20480;-61
2024/01/16 04:05:22;;;;;;;10.97;7.13;;;-0.20;99.90;;;;;;5019590;28;20471;-60
2024/01/16 04:07:52;;;;;;;10.80;7.80;;;-0.20;99.90;;;;;;5012790;28;20637;-60
2024/01/16 04:10:20;;;;;;;9.90;7.50;;;-0.20;99.90;;;;;;5010576;28;20560;-61
2024/01/16 04:12:48;;;;;;;8.03;6.67;;;-0.10;99.90;;;;;;5009527;28;20621;-60
2024/01/16 04:15:16;;;;;;;10.90;7.87;;;-0.20;99.90;;;;;;5016391;28;21036;-61
2024/01/16 04:17:46;;;;;;;9.13;8.13;;;-0.20;99.90;;;;;;5021342;28;20479;-61
2024/01/16 04:20:14;;;;;;;11.50;7.80;;;-0.20;99.90;;;;;;5015283;28;20491;-61
2024/01/16 04:22:42;;;;;;;9.90;7.57;;;-0.20;99.90;;;;;;5004633;28;20545;-60
2024/01/16 04:25:12;;;;;;;11.27;7.40;;;-0.20;99.90;;;;;;5028217;28;22430;-60
2024/01/16 04:27:40;;;;;;;9.90;7.50;;;-0.20;99.90;;;;;;5038899;28;20565;-60
2024/01/16 04:30:09;;;;;;;9.40;7.70;;;-0.20;99.90;;;;;;5022685;28;20485;-60
2024/01/16 04:32:38;;;;;;;9.80;8.20;;;-0.10;99.90;;;;;;5016990;28;20511;-61
2024/01/16 04:35:06;;;;;;;9.93;7.73;;;-0.10;99.90;;;;;;5021787;28;20482;-61
2024/01/16 04:37:34;;;;;;;9.50;7.50;;;-0.20;99.90;;;;;;5008699;28;20753;-60
2024/01/16 04:40:02;;;;;;;7.43;6.30;;;-0.20;99.90;;;;;;5008396;28;20549;-61
2024/01/16 04:42:31;;;;;;;10.17;6.63;;;-0.20;99.90;;;;;;5013927;28;20503;-60
2024/01/16 04:44:59;;;;;;;9.50;6.53;;;-0.20;99.90;;;;;;5018384;28;21020;-59
2024/01/16 04:47:27;;;;;;;8.73;7.00;;;-0.20;99.90;;;;;;5009401;28;20491;-61
2024/01/16 04:49:55;;;;;;;7.90;6.40;;;-0.20;99.90;;;;;;5014056;28;20497;-61
2024/01/16 04:52:23;;;;;;;8.23;6.40;;;-0.20;99.90;;;;;;5014010;28;21293;-61
2024/01/16 04:54:52;;;;;;;8.23;6.60;;;-0.20;99.90;;;;;;5005750;28;20557;-59
2024/01/16 04:57:21;;;;;;;7.80;6.27;;;-0.30;99.90;;;;;;5011089;28;20498;-60
2024/01/16 04:59:50;;;;;;;7.80;5.90;;;-0.30;99.90;;;;;;5021575;28;20509;-61
2024/01/16 05:02:18;;;;;;;9.30;6.17;;;-0.30;99.90;;;;;;5012349;28;20495;-59
2024/01/16 05:04:49;;;;;;;7.97;5.73;;;-0.30;99.90;;;;;;5014211;28;20494;-61
2024/01/16 05:07:17;;;;;;;7.00;5.77;;;-0.30;99.90;;;;;;5003161;28;20598;-61
2024/01/16 05:09:46;;;;;;;7.27;5.93;;;-0.40;99.90;;;;;;5010414;28;20499;-61
2024/01/16 05:12:14;;;;;;;6.70;5.50;;;-0.40;99.90;;;;;;5017334;28;20574;-61
2024/01/16 05:14:42;;;;;;;7.60;5.57;;;-0.40;99.90;;;;;;5013681;28;20579;-61
2024/01/16 05:17:12;;;;;;;5.40;4.73;;;-0.40;99.90;;;;;;5011558;28;20476;-61
2024/01/16 05:19:40;;;;;;;6.80;5.10;;;-0.40;99.90;;;;;;5009395;28;20945;-60
2024/01/16 05:22:08;;;;;;;8.90;5.43;;;-0.30;99.90;;;;;;5004699;28;20578;-60
2024/01/16 05:24:36;;;;;;;6.63;4.77;;;-0.30;99.90;;;;;;5006346;28;20533;-60
2024/01/16 05:27:04;;;;;;;7.07;5.60;;;-0.30;99.90;;;;;;5011305;28;20554;-61
2024/01/16 05:29:32;;;;;;;3.93;3.27;;;-0.30;99.90;;;;;;5019336;28;23578;-61
2024/01/16 05:32:00;;;;;;;5.07;3.97;;;-0.30;99.90;;;;;;5005953;28;20904;-61
2024/01/16 05:34:30;;;;;;;5.53;3.60;;;-0.30;99.90;;;;;;5016208;28;20965;-61
2024/01/16 05:36:58;;;;;;;4.80;3.70;;;-0.20;99.90;;;;;;5019022;28;20482;-61
2024/01/16 05:39:25;;;;;;;4.93;3.60;;;-0.20;99.90;;;;;;5019159;28;20483;-61
2024/01/16 05:41:53;;;;;;;5.37;3.50;;;-0.20;99.90;;;;;;5012870;28;20582;-60
2024/01/16 05:44:25;;;;;;;4.97;3.80;;;-0.20;99.90;;;;;;5019995;28;20503;-61
2024/01/16 05:46:53;;;;;;;4.27;3.17;;;-0.10;99.90;;;;;;5019767;28;20975;-61
2024/01/16 05:49:21;;;;;;;4.03;3.10;;;-0.10;99.90;;;;;;5013847;28;20479;-60
2024/01/16 05:51:50;;;;;;;4.57;2.50;;;-0.10;99.90;;;;;;5012695;28;20568;-60
2024/01/16 05:54:18;;;;;;;3.73;2.57;;;-0.10;99.90;;;;;;5012823;28;20471;-61
2024/01/16 05:56:46;;;;;;;3.53;2.47;;;-0.10;99.90;;;;;;5004677;28;20471;-61
2024/01/16 05:59:14;;;;;;;3.07;2.50;;;-0.10;99.90;;;;;;5009948;28;20503;-61
2024/01/16 06:01:42;;;;;;;3.90;2.47;;;-0.10;99.90;;;;;;5014992;28;20859;-61
2024/01/16 06:04:10;;;;;;;3.43;2.47;;;-0.10;99.90;;;;;;5007661;28;20598;-61
2024/01/16 06:06:44;;;;;;;2.67;2.43;;;-0.10;99.90;;;;;;5003519;28;21127;-60
2024/01/16 06:09:14;;;;;;;2.40;2.00;;;-0.10;99.90;;;;;;5006154;28;20463;-60
2024/01/16 06:11:42;;;;;;;3.00;2.23;;;-0.10;99.90;;;;;;5004615;28;20737;-61
2024/01/16 06:14:12;;;;;;;3.17;2.60;;;-0.10;99.90;;;;;;4996334;28;20901;-60
2024/01/16 06:16:40;;;;;;;2.17;1.93;;;0.00;99.90;;;;;;4998180;28;20720;-61
2024/01/16 06:19:08;;;;;;;3.03;2.30;;;0.00;99.90;;;;;;5000404;28;20586;-61
2024/01/16 06:21:39;;;;;;;3.47;2.20;;;0.00;99.90;;;;;;5006216;28;20740;-65
2024/01/16 06:24:07;;;;;;;2.10;1.90;;;0.00;99.90;;;;;;5001582;28;21059;-61
2024/01/16 06:26:36;;;;;;;1.97;1.83;;;0.00;99.90;;;;;;5008728;28;20654;-61
2024/01/16 06:29:04;;;;;;;4.50;2.47;;;0.00;99.90;;;;;;4990026;28;20813;-61
2024/01/16 06:31:35;;;;;;;2.77;2.00;;;0.00;99.90;;;;;;4997113;28;20625;-61
2024/01/16 06:34:03;;;;;;;2.10;1.90;;;0.00;99.90;;;;;;5003347;28;20521;-63
2024/01/16 06:36:31;;;;;;;2.57;2.30;;;0.00;99.90;;;;;;5000908;28;20486;-59
2024/01/16 06:38:59;;;;;;;4.43;2.07;;;0.00;99.90;;;;;;5021296;28;20457;-59
2024/01/16 06:41:27;;;;;;;4.47;2.37;;;0.00;99.90;;;;;;5022238;28;20531;-61
2024/01/16 06:43:56;;;;;;;2.40;2.20;;;0.00;99.90;;;;;;5009775;28;20471;-61
2024/01/16 06:46:25;;;;;;;3.60;2.70;;;0.00;99.90;;;;;;5011562;28;20598;-64
2024/01/16 06:48:53;;;;;;;2.77;2.30;;;0.10;99.90;;;;;;5004574;28;20610;-61
2024/01/16 06:51:21;;;;;;;4.53;2.47;;;0.10;99.90;;;;;;5019393;28;20594;-61
2024/01/16 06:53:49;;;;;;;3.10;2.53;;;0.10;99.90;;;;;;5022430;28;20639;-60
2024/01/16 06:56:17;;;;;;;3.80;3.10;;;0.20;99.90;;;;;;5021300;28;20468;-61
2024/01/16 06:58:45;;;;;;;4.10;2.50;;;0.20;99.90;;;;;;5014554;28;20474;-61
2024/01/16 07:01:14;;;;;;;4.43;3.10;;;0.20;99.90;;;;;;5017431;28;20582;-62
2024/01/16 07:03:43;;;;;;;3.77;2.80;;;0.20;99.90;;;;;;5003111;28;20471;-59
2024/01/16 07:06:11;;;;;;;3.67;3.10;;;0.20;99.90;;;;;;5013622;28;22624;-61
2024/01/16 07:08:40;;;;;;;5.53;2.87;;;0.20;99.90;;;;;;5005933;28;20474;-59
2024/01/16 07:11:12;;;;;;;5.30;3.10;;;0.10;99.90;;;;;;5006745;28;20538;-60
2024/01/16 07:13:41;;;;;;;3.13;2.27;;;0.10;99.90;;;;;;5013599;28;21059;-60
2024/01/16 07:16:11;;;;;;;6.43;2.73;;;0.10;99.90;;;;;;5019585;28;20860;-60
2024/01/16 07:18:40;;;;;;;3.83;2.63;;;0.10;99.90;;;;;;5019286;28;20478;-61
2024/01/16 07:21:17;;;;;;;4.60;2.70;;;0.10;99.90;;;;;;5013224;28;20487;-60
2024/01/16 07:23:45;;;;;;;4.90;2.83;;;0.10;99.90;;;;;;5025223;28;20956;-61
2024/01/16 07:26:14;;;;;;;4.70;2.83;;;0.10;99.90;;;;;;5016425;28;20551;-61
2024/01/16 07:28:42;;;;;;;3.03;2.40;;;0.10;99.90;;;;;;5016845;28;20476;-60
2024/01/16 07:31:11;;;;;;;3.50;2.60;;;0.10;99.90;;;;;;5013256;28;20606;-61
2024/01/16 07:33:40;;;;;;;5.27;3.00;;;0.10;99.90;;;;;;5013487;28;20479;-59
2024/01/16 07:36:10;;;;;;;5.67;2.80;;;0.10;99.90;;;;;;5012794;28;20471;-61
2024/01/16 07:38:38;;;;;;;3.00;2.70;;;0.10;99.90;;;;;;5018644;28;20724;-61
2024/01/16 07:41:06;;;;;;;6.53;3.10;;;0.10;99.90;;;;;;5019664;28;20491;-61
2024/01/16 07:43:35;;;;;;;5.67;3.33;;;0.10;99.90;;;;;;5021114;28;20561;-61
2024/01/16 07:46:03;;;;;;;5.67;3.10;;;0.20;99.90;;;;;;5015419;28;20546;-60
2024/01/16 07:48:31;;;;;;;5.63;3.23;;;0.20;99.90;;;;;;5016330;28;20555;-61
2024/01/16 07:51:01;;;;;;;3.70;3.40;;;0.20;99.90;;;;;;5015501;28;20494;-61
2024/01/16 07:53:29;;;;;;;7.17;3.40;;;0.20;99.90;;;;;;5015218;28;20470;-59
2024/01/16 07:55:58;;;;;;;3.57;3.00;;;0.20;99.90;;;;;;5014610;28;20499;-59
2024/01/16 07:58:26;;;;;;;6.40;4.50;;;0.20;99.90;;;;;;5020648;28;20478;-61
2024/01/16 08:00:53;;;;;;;4.47;3.43;;;0.20;99.90;;;;;;5014126;28;20557;-61
2024/01/16 08:03:21;;;;;;;3.53;2.80;;;0.20;99.90;;;;;;5017890;28;20571;-61
2024/01/16 08:05:49;;;;;;;4.57;2.73;;;0.20;99.90;;;;;;5016040;28;20486;-61
2024/01/16 08:08:19;;;;;;;3.67;3.00;;;0.20;99.90;;;;;;5008993;28;20483;-61
2024/01/16 08:10:47;;;;;;;4.23;3.47;;;0.20;99.90;;;;;;5011837;28;20570;-60
2024/01/16 08:13:15;;;;;;;3.50;3.00;;;0.20;99.90;;;;;;5011881;28;20538;-61
2024/01/16 08:15:43;;;;;;;3.63;2.87;;;0.20;99.90;;;;;;5019591;28;20601;-61
2024/01/16 08:18:11;;;;;;;3.27;2.97;;;0.30;99.90;;;;;;5011753;28;21051;-61
2024/01/16 08:20:39;;;;;;;4.53;3.27;;;0.30;99.90;;;;;;5010031;28;21441;-60
2024/01/16 08:23:07;;;;;;;4.50;3.10;;;0.30;99.90;;;;;;5011233;28;20491;-60
2024/01/16 08:25:37;;;;;;;4.27;3.27;;;0.40;99.90;;;;;;5009030;28;20520;-61
2024/01/16 08:28:05;;;;;;;6.13;3.20;;;0.40;99.90;;;;;;5015346;28;20537;-61
2024/01/16 08:30:33;;;;;;;5.43;3.70;;;0.40;99.90;;;;;;5015220;28;21192;-59
2024/01/16 08:33:01;;;;;;;5.03;3.33;;;0.40;99.90;;;;;;5030951;28;20464;-59
2024/01/16 08:35:29;;;;;;;7.40;3.47;;;0.40;99.90;;;;;;5039211;28;21037;-68
2024/01/16 08:37:57;;;;;;;5.60;3.37;;;0.40;99.90;;;;;;5029437;28;20607;-68
2024/01/16 08:40:26;;;;;;;3.73;3.23;;;0.40;99.90;;;;;;5032944;28;20570;-59
2024/01/16 08:42:55;;;;;;;4.30;2.73;;;0.40;99.90;;;;;;5040656;28;20518;-60
2024/01/16 08:45:26;;;;;;;4.70;3.50;;;0.40;99.90;;;;;;5034107;28;20471;-61
2024/01/16 08:47:54;;;;;;;3.80;3.27;;;0.40;99.90;;;;;;5015876;28;20486;-59
2024/01/16 08:50:22;;;;;;;4.03;3.37;;;0.40;99.90;;;;;;5008969;28;20797;-60
2024/01/16 08:52:51;;;;;;;4.60;3.53;;;0.40;99.90;;;;;;5033133;28;20495;-59
2024/01/16 08:55:19;;;;;;;4.43;3.57;;;0.40;99.90;;;;;;5023972;28;21007;-61
2024/01/16 08:57:47;;;;;;;4.67;3.50;;;0.40;99.90;;;;;;5012777;28;20480;-60
2024/01/16 09:00:17;;;;;;;4.50;3.60;;;0.40;99.90;;;;;;5016601;28;21051;-61
2024/01/16 09:02:45;;;;;;;5.10;3.40;;;0.40;99.90;;;;;;5011727;28;20507;-62
2024/01/16 09:05:14;;;;;;;6.50;3.70;;;0.40;99.90;;;;;;5015888;28;20777;-62
2024/01/16 09:07:42;;;;;;;4.23;3.70;;;0.50;99.90;;;;;;5016332;28;21755;-61
2024/01/16 09:10:11;;;;;;;5.70;4.30;;;0.50;99.90;;;;;;5014088;28;20499;-61
2024/01/16 09:12:39;;;;;;;8.90;4.40;;;0.50;99.90;;;;;;5009184;28;20528;-61
2024/01/16 09:15:09;;;;;;;7.10;3.87;;;0.50;99.90;;;;;;5012654;28;20479;-60
2024/01/16 09:17:39;;;;;;;5.90;4.10;;;0.50;99.90;;;;;;5010697;28;20529;-62
2024/01/16 09:20:08;;;;;;;5.70;3.77;;;0.50;99.90;;;;;;5014136;28;20582;-61
2024/01/16 09:22:36;;;;;;;6.00;3.93;;;0.50;99.90;;;;;;5015414;28;21055;-62
2024/01/16 09:25:05;;;;;;;6.10;3.77;;;0.50;99.90;;;;;;5018348;28;20542;-61
2024/01/16 09:27:33;;;;;;;5.60;4.00;;;0.50;99.90;;;;;;5010640;28;21102;-60
2024/01/16 09:30:01;;;;;;;6.17;4.20;;;0.60;99.90;;;;;;5014472;28;20563;-60
2024/01/16 09:32:29;;;;;;;5.70;3.90;;;0.60;99.90;;;;;;5013958;28;20494;-61
2024/01/16 09:35:01;;;;;;;7.63;4.03;;;0.60;99.90;;;;;;5017201;28;20532;-62
2024/01/16 09:37:29;;;;;;;4.20;3.57;;;0.70;99.90;;;;;;5019545;28;20494;-61
2024/01/16 09:39:57;;;;;;;5.63;3.80;;;0.70;99.90;;;;;;5022495;28;21058;-62
2024/01/16 09:42:25;;;;;;;4.80;4.07;;;0.70;99.90;;;;;;5020047;28;20537;-62
2024/01/16 09:44:56;;;;;;;4.90;3.50;;;0.70;99.90;;;;;;5016819;28;20590;-61
2024/01/16 09:47:26;;;;;;;5.97;4.00;;;0.70;99.90;;;;;;5008909;28;20537;-62
2024/01/16 09:49:56;;;;;;;7.87;4.00;;;0.70;99.90;;;;;;5015251;28;20487;-61
2024/01/16 09:52:26;;;;;;;6.50;3.90;;;0.70;99.90;;;;;;5009614;28;20490;-61
2024/01/16 09:54:54;;;;;;;6.27;3.47;;;0.70;99.90;;;;;;5014131;28;20785;-61
2024/01/16 09:57:26;;;;;;;5.77;4.30;;;0.80;99.90;;;;;;5012910;28;20862;-61
2024/01/16 09:59:56;;;;;;;5.90;4.07;;;0.80;99.90;;;;;;5011237;28;20578;-61
2024/01/16 10:02:25;;;;;;;7.30;4.00;;;0.80;99.90;;;;;;5016350;28;20548;-60
2024/01/16 10:04:53;;;;;;;9.03;4.80;;;0.80;99.90;;;;;;5013234;28;20490;-62
2024/01/16 10:07:27;;;;;;;6.10;3.53;;;0.80;99.90;;;;;;5009800;28;20574;-61
2024/01/16 10:09:58;;;;;;;4.47;3.53;;;0.90;99.90;;;;;;5011330;28;20486;-62
2024/01/16 10:12:26;;;;;;;6.00;3.30;;;0.90;99.90;;;;;;5013888;28;20569;-61
2024/01/16 10:14:56;;;;;;;6.63;3.40;;;0.90;99.90;;;;;;5013364;28;20550;-61
2024/01/16 10:17:37;;;;;;;6.77;3.40;;;0.90;99.90;;;;;;5019064;28;20482;-61
2024/01/16 10:20:06;;;;;;;3.33;2.73;;;0.90;99.90;;;;;;5007456;28;20541;-61
2024/01/16 10:22:34;;;;;;;3.77;2.70;;;1.00;99.90;;;;;;5012912;28;20922;-61
2024/01/16 10:25:09;;;;;;;4.87;2.67;;;1.00;99.90;;;;;;5008974;28;20503;-61
2024/01/16 10:27:38;;;;;;;6.80;3.33;;;1.00;99.90;;;;;;5012899;28;20482;-62
2024/01/16 10:30:07;;;;;;;6.20;3.40;;;1.00;99.90;;;;;;5015101;28;20483;-62
2024/01/16 10:32:37;;;;;;;4.60;2.93;;;1.00;99.90;;;;;;5016314;28;20495;-62
2024/01/16 10:35:08;;;;;;;5.37;3.43;;;1.00;99.90;;;;;;5010963;28;21038;-62
2024/01/16 10:37:44;;;;;;;4.30;3.13;;;1.10;99.90;;;;;;5019086;28;20561;-61
2024/01/16 10:40:16;;;;;;;5.53;3.40;;;1.10;99.90;;;;;;5016146;28;20479;-61
2024/01/16 10:42:46;;;;;;;4.40;3.60;;;1.10;99.90;;;;;;5015718;28;20503;-62
2024/01/16 10:45:19;;;;;;;5.33;3.70;;;1.20;99.90;;;;;;5005258;28;20513;-60
2024/01/16 10:47:47;;;;;;;6.70;3.77;;;1.20;99.90;;;;;;5013589;28;20562;-61
2024/01/16 10:50:16;;;;;;;5.63;4.10;;;1.20;99.90;;;;;;5008346;28;20570;-61
2024/01/16 10:52:49;;;;;;;5.57;4.40;;;1.20;99.90;;;;;;5008136;28;20509;-61
2024/01/16 10:55:22;;;;;;;6.13;3.93;;;1.20;99.90;;;;;;5022698;28;20545;-61
2024/01/16 10:57:51;;;;;;;6.37;4.80;;;1.20;99.90;;;;;;5011357;28;20878;-61
2024/01/16 11:00:21;;;;;;;6.17;4.70;;;1.20;99.90;;;;;;5006224;28;20487;-60
2024/01/16 11:02:59;;;;;;;8.10;5.10;;;1.20;99.90;;;;;;5010353;28;21014;-61
2024/01/16 11:05:30;;;;;;;5.50;4.67;;;1.20;99.90;;;;;;5013064;28;20577;-60
2024/01/16 11:08:02;;;;;;;5.00;4.40;;;1.30;99.90;;;;;;5016496;28;21020;-62
2024/01/16 11:10:32;;;;;;;7.13;4.47;;;1.30;99.90;;;;;;5014122;28;20753;-62
2024/01/16 11:13:03;;;;;;;6.33;3.90;;;1.30;99.90;;;;;;5009282;28;20483;-62
2024/01/16 11:15:32;;;;;;;8.43;4.77;;;1.40;99.90;;;;;;5015899;28;20479;-61
2024/01/16 11:18:02;;;;;;;5.03;3.80;;;1.40;99.90;;;;;;5018663;28;20529;-61
2024/01/16 11:20:32;;;;;;;3.90;3.50;;;1.40;99.90;;;;;;5022819;28;20499;-60
2024/01/16 11:23:19;;;;;;;5.43;4.10;;;1.40;99.90;;;;;;5012795;28;20490;-62
2024/01/16 11:25:49;;;;;;;5.77;4.03;;;1.40;99.90;;;;;;5014490;28;20499;-62
2024/01/16 11:28:19;;;;;;;4.67;3.53;;;1.50;99.90;;;;;;5013346;28;20558;-62
2024/01/16 11:30:47;;;;;;;6.03;3.00;;;1.50;99.90;;;;;;5019841;28;20972;-62
2024/01/16 11:33:43;;;;;;;5.00;3.20;;;1.50;99.90;;;;;;5011570;28;20608;-62
2024/01/16 11:36:50;;;;;;;7.00;4.00;;;1.60;99.90;;;;;;5020294;28;20479;-62
2024/01/16 11:39:20;;;;;;;4.60;2.80;;;1.60;99.90;;;;;;5023263;28;20799;-60
2024/01/16 11:41:53;;;;;;;3.57;3.00;;;1.70;99.90;;;;;;5022057;28;20844;-64
2024/01/16 11:44:36;;;;;;;3.80;3.17;;;1.70;99.90;;;;;;5017456;28;20493;-62
2024/01/16 11:47:05;;;;;;;5.47;3.83;;;1.70;99.90;;;;;;5014502;28;20471;-61
2024/01/16 11:49:33;;;;;;;8.30;3.73;;;1.70;99.90;;;;;;5013858;28;20984;-62
2024/01/16 11:52:02;;;;;;;5.00;3.30;;;1.80;99.90;;;;;;5015619;28;20491;-62
2024/01/16 11:54:30;;;;;;;6.70;3.90;;;1.80;99.90;;;;;;5014948;28;21137;-62
2024/01/16 11:57:36;;;;;;;5.47;3.80;;;1.80;99.90;;;;;;5009570;28;20574;-61
2024/01/16 12:00:12;;;;;;;5.10;3.57;;;1.80;99.90;;;;;;4977849;28;20482;-60
2024/01/16 12:02:54;;;;;;;3.77;2.87;;;1.80;99.90;;;;;;5018047;28;20493;-62
2024/01/16 12:05:23;;;;;;;4.27;3.20;;;1.80;99.90;;;;;;5018943;28;20599;-62
2024/01/16 12:07:52;;;;;;;5.53;2.57;;;1.80;99.90;;;;;;5015825;28;20983;-62
2024/01/16 12:10:21;;;;;;;6.40;2.67;;;1.80;99.90;;;;;;5015945;28;20495;-62
2024/01/16 12:12:51;;;;;;;5.30;2.77;;;1.80;99.90;;;;;;5005802;28;20541;-62
2024/01/16 12:15:21;;;;;;;4.60;2.83;;;1.80;99.90;;;;;;5014812;28;20475;-62
2024/01/16 12:17:57;;;;;;;6.80;2.80;;;1.70;99.90;;;;;;5015153;28;20485;-62
2024/01/16 12:20:27;;;;;;;2.90;2.10;;;1.70;99.90;;;;;;5017749;28;20552;-62
2024/01/16 12:23:00;;;;;;;3.47;2.23;;;1.80;99.90;;;;;;5004021;28;20603;-60
2024/01/16 12:25:29;;;;;;;3.10;2.30;;;1.80;99.90;;;;;;5004072;28;20900;-61
2024/01/16 12:28:19;;;;;;;5.13;2.10;;;1.80;99.90;;;;;;4999965;28;20486;-62
2024/01/16 12:31:02;;;;;;;3.33;2.07;;;1.80;99.90;;;;;;5012768;28;20505;-60
2024/01/16 12:33:31;;;;;;;4.07;2.00;;;1.80;99.90;;;;;;5016654;28;20471;-62
2024/01/16 12:36:04;;;;;;;3.30;1.60;;;1.80;99.90;;;;;;5012066;28;20558;-61
2024/01/16 12:38:34;;;;;;;6.53;2.37;;;1.80;99.90;;;;;;5017795;28;20917;-62
2024/01/16 12:41:07;;;;;;;3.50;2.60;;;1.90;99.90;;;;;;5020849;28;20867;-62
2024/01/16 12:43:36;;;;;;;5.70;2.73;;;1.90;99.90;;;;;;5008026;28;20792;-62
2024/01/16 12:46:06;;;;;;;3.83;2.77;;;1.90;99.90;;;;;;5017321;28;21248;-62
2024/01/16 12:48:34;;;;;;;4.93;3.43;;;1.80;99.90;;;;;;5015430;28;21006;-62
2024/01/16 12:51:04;;;;;;;5.40;4.27;;;1.80;99.90;;;;;;5009363;28;21024;-61
2024/01/16 12:53:36;;;;;;;6.27;4.63;;;1.80;99.90;;;;;;5009078;28;20525;-62
2024/01/16 12:56:05;;;;;;;8.30;4.57;;;1.80;99.90;;;;;;5015882;28;20489;-62
2024/01/16 12:58:35;;;;;;;4.93;4.33;;;1.80;99.90;;;;;;5012259;28;20955;-61
2024/01/16 13:01:26;;;;;;;5.43;4.63;;;1.80;99.90;;;;;;5013557;28;20491;-61
2024/01/16 13:04:07;;;;;;;6.40;4.40;;;1.80;99.90;;;;;;5015565;28;20514;-61
2024/01/16 13:06:36;;;;;;;5.70;4.40;;;1.90;99.90;;;;;;5012136;28;20546;-62